Accueil
METAR-TAF:

METAR-TAF

Aéroports :

Sabadell, Espagne

latitude: 41-31N, longitude: 002-06E, altitude: 250 m

Observation

Le bulletin a été fait il y a 11 minutes, à 03:00 UTC
Vent 4 kt de ouest
Température 4°C
Humidité 93%
Pression 1028 hPa
Visibilité 10 km ou plus

METAR: LELL 100300Z AUTO 28004KT 9999 NCD 04/03 Q1028

Heure: 04:11 (03:11 UTC)

Prévision

Le bulletin a été fait il y a 1 heure et 11 minutes, à 02:00 UTC
Prévision valable du 10 à 03 UTC au 11 à 03 UTC
Vent 3 kt de ouest/nord-ouest
Visibilité 10 km ou plus
Quelques nuages à une hauteur de 3000 ft
Evoluant progressivement
du 10 à 10 UTC au 10 à 12 UTC
Vent 6 kt de sud-ouest
Evoluant progressivement
du 10 à 18 UTC au 10 à 20 UTC
Vent 6 kt de ouest/nord-ouest

TAF: LELL 100200Z 1003/1103 30003KT 9999 FEW030 TX14/1013Z TN04/1006Z BECMG 1010/1012 22006KT BECMG 1018/1020 30006KT

Observations et prévisions météorologiques de plus de 4000 aéroports (messages METAR et TAF).

Les stations disponibles sont représentées par des disques jaunes et rouges sur la carte.

Passer la souris dessus pour voir le nom de la station.

Cliquer dessus pour voir les observations et prévisions météorologiques.

Pour changer de carte: cliquez sur les boutons verts avec une croix noire pour zoomer, sur le bouton vert avec un tiret pour effectuer un zoom arrière, ou sur les flèches vertes pour les cartes adjacentes.


METAR-TAF: